AIC5 VOBL-VOTR
Flight info
| Callsign | AIC5 |
|---|---|
| Flight time | 0h 43m |
| Altitude | 27000 |
| Route | AKTIM7B AKTIM V45 TTR |
| Aircraft | B742/H-SDFHIRWXY/L |
Departure
| Time | 2026-05-05 17:27 |
|---|---|
| Airport | Kempegowda International Airport Bengaluru (VOBL) |
Arrival
| Time | 2026-05-05 18:10 |
|---|---|
| Airport | Tiruchirappalli International Airport (VOTR) |
| Time | Latitude | Longitude | Altitude | Speed | Heading |
|---|---|---|---|---|---|
| 2026-05-05 17:12 | 13.20177 | 77.70879 | 3011 ft | 0 kts | 180° |
| 2026-05-05 17:19 | 13.20186 | 77.70879 | 3011 ft | 0 kts | 180° |
| 2026-05-05 17:20 | 13.20200 | 77.70878 | 3011 ft | 2 kts | 171° |
| 2026-05-05 17:20 | 13.20214 | 77.70874 | 3011 ft | 2 kts | 158° |
| 2026-05-05 17:20 | 13.20228 | 77.70868 | 3011 ft | 2 kts | 146° |
| 2026-05-05 17:20 | 13.20240 | 77.70858 | 3011 ft | 2 kts | 135° |
| 2026-05-05 17:21 | 13.20249 | 77.70847 | 3011 ft | 2 kts | 123° |
| 2026-05-05 17:21 | 13.20257 | 77.70834 | 3011 ft | 2 kts | 112° |
| 2026-05-05 17:21 | 13.20261 | 77.70819 | 3011 ft | 2 kts | 101° |
| 2026-05-05 17:22 | 13.20264 | 77.70800 | 3011 ft | 0 kts | 91° |
| 2026-05-05 17:22 | 13.20264 | 77.70794 | 3011 ft | 1 kts | 93° |
| 2026-05-05 17:22 | 13.20265 | 77.70787 | 3011 ft | 1 kts | 91° |
| 2026-05-05 17:22 | 13.20265 | 77.70786 | 3011 ft | 0 kts | 90° |
| 2026-05-05 17:23 | 13.20265 | 77.70792 | 3011 ft | 5 kts | 89° |
| 2026-05-05 17:23 | 13.20263 | 77.70898 | 3011 ft | 19 kts | 90° |
| 2026-05-05 17:24 | 13.20259 | 77.71039 | 3011 ft | 19 kts | 89° |
| 2026-05-05 17:24 | 13.20285 | 77.71166 | 3011 ft | 17 kts | 34° |
| 2026-05-05 17:24 | 13.20404 | 77.71175 | 3011 ft | 19 kts | 359° |
| 2026-05-05 17:24 | 13.20520 | 77.71245 | 3011 ft | 26 kts | 84° |
| 2026-05-05 17:25 | 13.20521 | 77.71455 | 3011 ft | 35 kts | 90° |
| 2026-05-05 17:25 | 13.20519 | 77.71634 | 3011 ft | 38 kts | 91° |
| 2026-05-05 17:25 | 13.20515 | 77.72001 | 3011 ft | 38 kts | 88° |
| 2026-05-05 17:25 | 13.20521 | 77.72243 | 3011 ft | 12 kts | 54° |
| 2026-05-05 17:26 | 13.20578 | 77.72280 | 3011 ft | 8 kts | 5° |
| 2026-05-05 17:26 | 13.20673 | 77.72263 | 3011 ft | 16 kts | 315° |
| 2026-05-05 17:26 | 13.20685 | 77.72160 | 3011 ft | 15 kts | 271° |
| 2026-05-05 17:26 | 13.20688 | 77.71944 | 3011 ft | 57 kts | 270° |
| 2026-05-05 17:27 | 13.20693 | 77.71252 | 3011 ft | 134 kts | 270° |
| 2026-05-05 17:27 | 13.20722 | 77.70138 | 3307 ft | 165 kts | 270° |
| 2026-05-05 17:27 | 13.20739 | 77.68980 | 4066 ft | 165 kts | 269° |
| 2026-05-05 17:27 | 13.20827 | 77.67817 | 4772 ft | 169 kts | 290° |
| 2026-05-05 17:28 | 13.21606 | 77.66970 | 5430 ft | 173 kts | 338° |
| 2026-05-05 17:28 | 13.22716 | 77.66553 | 6095 ft | 175 kts | 322° |
| 2026-05-05 17:28 | 13.23432 | 77.65485 | 6352 ft | 196 kts | 281° |
| 2026-05-05 17:28 | 13.23233 | 77.64036 | 6576 ft | 221 kts | 243° |
| 2026-05-05 17:29 | 13.22090 | 77.62892 | 6766 ft | 249 kts | 208° |
| 2026-05-05 17:29 | 13.20301 | 77.62479 | 6979 ft | 281 kts | 185° |
| 2026-05-05 17:29 | 13.18317 | 77.62443 | 7580 ft | 290 kts | 181° |
| 2026-05-05 17:29 | 13.16295 | 77.62430 | 8374 ft | 294 kts | 182° |
| 2026-05-05 17:30 | 13.14239 | 77.62383 | 9200 ft | 298 kts | 183° |
| 2026-05-05 17:30 | 13.12162 | 77.62314 | 10069 ft | 304 kts | 183° |
| 2026-05-05 17:30 | 13.09989 | 77.62231 | 10364 ft | 333 kts | 182° |
| 2026-05-05 17:30 | 13.07567 | 77.62136 | 10559 ft | 361 kts | 182° |
| 2026-05-05 17:31 | 13.04954 | 77.62035 | 10754 ft | 383 kts | 182° |
| 2026-05-05 17:31 | 13.02233 | 77.61929 | 10947 ft | 401 kts | 182° |
| 2026-05-05 17:31 | 12.99402 | 77.61820 | 11141 ft | 414 kts | 182° |
| 2026-05-05 17:31 | 12.96537 | 77.61708 | 11331 ft | 424 kts | 182° |
| 2026-05-05 17:32 | 12.93588 | 77.61594 | 11770 ft | 427 kts | 182° |
| 2026-05-05 17:32 | 12.90621 | 77.61478 | 12232 ft | 429 kts | 182° |
| 2026-05-05 17:32 | 12.87613 | 77.61362 | 12720 ft | 432 kts | 182° |
| 2026-05-05 17:32 | 12.84626 | 77.61247 | 13232 ft | 436 kts | 182° |
| 2026-05-05 17:33 | 12.81578 | 77.61129 | 13786 ft | 439 kts | 181° |
| 2026-05-05 17:33 | 12.78534 | 77.61012 | 14375 ft | 443 kts | 181° |
| 2026-05-05 17:33 | 12.75433 | 77.60892 | 15010 ft | 447 kts | 181° |
| 2026-05-05 17:33 | 12.72340 | 77.60774 | 15673 ft | 451 kts | 181° |
| 2026-05-05 17:34 | 12.69204 | 77.60700 | 16317 ft | 454 kts | 178° |
| 2026-05-05 17:34 | 12.66099 | 77.61143 | 16953 ft | 457 kts | 165° |
| 2026-05-05 17:34 | 12.63070 | 77.62153 | 17648 ft | 459 kts | 158° |
| 2026-05-05 17:34 | 12.60072 | 77.63345 | 18351 ft | 464 kts | 157° |
| 2026-05-05 17:35 | 12.57068 | 77.64535 | 19058 ft | 468 kts | 158° |
| 2026-05-05 17:35 | 12.54003 | 77.65689 | 19788 ft | 473 kts | 159° |
| 2026-05-05 17:35 | 12.51211 | 77.66687 | 20463 ft | 477 kts | 160° |
| 2026-05-05 17:35 | 12.47848 | 77.67842 | 21266 ft | 482 kts | 160° |
| 2026-05-05 17:36 | 12.44676 | 77.68903 | 22012 ft | 487 kts | 160° |
| 2026-05-05 17:36 | 12.41459 | 77.69965 | 22735 ft | 491 kts | 160° |
| 2026-05-05 17:36 | 12.38199 | 77.71036 | 23447 ft | 496 kts | 160° |
| 2026-05-05 17:36 | 12.34925 | 77.72109 | 24149 ft | 500 kts | 160° |
| 2026-05-05 17:37 | 12.31628 | 77.73189 | 24832 ft | 505 kts | 160° |
| 2026-05-05 17:37 | 12.28273 | 77.74289 | 25549 ft | 509 kts | 160° |
| 2026-05-05 17:37 | 12.24898 | 77.75396 | 26152 ft | 517 kts | 160° |
| 2026-05-05 17:37 | 12.21481 | 77.76519 | 26531 ft | 523 kts | 160° |
| 2026-05-05 17:38 | 12.18058 | 77.77641 | 26872 ft | 518 kts | 160° |
| 2026-05-05 17:38 | 12.14628 | 77.78765 | 27023 ft | 515 kts | 160° |
| 2026-05-05 17:38 | 12.11240 | 77.79876 | 27055 ft | 516 kts | 160° |
| 2026-05-05 17:38 | 12.07811 | 77.81001 | 27061 ft | 516 kts | 160° |
| 2026-05-05 17:39 | 12.04431 | 77.82108 | 27061 ft | 515 kts | 160° |
| 2026-05-05 17:39 | 12.01032 | 77.83222 | 27062 ft | 515 kts | 160° |
| 2026-05-05 17:39 | 11.97638 | 77.84334 | 27061 ft | 515 kts | 160° |
| 2026-05-05 17:39 | 11.94290 | 77.85430 | 27055 ft | 515 kts | 160° |
| 2026-05-05 17:40 | 11.90901 | 77.86539 | 27048 ft | 515 kts | 160° |
| 2026-05-05 17:40 | 11.87598 | 77.87620 | 27042 ft | 515 kts | 160° |
| 2026-05-05 17:40 | 11.84173 | 77.88740 | 27038 ft | 516 kts | 160° |
| 2026-05-05 17:40 | 11.80765 | 77.89854 | 27034 ft | 515 kts | 160° |
| 2026-05-05 17:41 | 11.77330 | 77.90977 | 27029 ft | 516 kts | 160° |
| 2026-05-05 17:41 | 11.73960 | 77.92078 | 27010 ft | 519 kts | 160° |
| 2026-05-05 17:41 | 11.70511 | 77.93206 | 26612 ft | 524 kts | 160° |
| 2026-05-05 17:41 | 11.67047 | 77.94366 | 26174 ft | 516 kts | 158° |
| 2026-05-05 17:42 | 11.63843 | 77.95873 | 25744 ft | 508 kts | 148° |
| 2026-05-05 17:42 | 11.60944 | 77.97804 | 25320 ft | 503 kts | 142° |
| 2026-05-05 17:42 | 11.58228 | 77.99991 | 24857 ft | 501 kts | 138° |
| 2026-05-05 17:42 | 11.55649 | 78.02264 | 24345 ft | 497 kts | 136° |
| 2026-05-05 17:43 | 11.53082 | 78.04607 | 23825 ft | 493 kts | 136° |
| 2026-05-05 17:43 | 11.50555 | 78.06923 | 23307 ft | 490 kts | 136° |
| 2026-05-05 17:43 | 11.48021 | 78.09232 | 22787 ft | 487 kts | 136° |
| 2026-05-05 17:43 | 11.45533 | 78.11481 | 22270 ft | 474 kts | 136° |
| 2026-05-05 17:44 | 11.43119 | 78.13649 | 21738 ft | 462 kts | 136° |
| 2026-05-05 17:44 | 11.40711 | 78.15804 | 21162 ft | 450 kts | 136° |
| 2026-05-05 17:44 | 11.38413 | 78.17855 | 20600 ft | 438 kts | 137° |
| 2026-05-05 17:44 | 11.36169 | 78.19857 | 20036 ft | 427 kts | 137° |
| 2026-05-05 17:45 | 11.33961 | 78.21825 | 19466 ft | 416 kts | 137° |
| 2026-05-05 17:45 | 11.31819 | 78.23734 | 18895 ft | 402 kts | 137° |
| 2026-05-05 17:45 | 11.29782 | 78.25547 | 18286 ft | 387 kts | 137° |
| 2026-05-05 17:45 | 11.27798 | 78.27314 | 17669 ft | 373 kts | 137° |
| 2026-05-05 17:46 | 11.25960 | 78.28951 | 17076 ft | 361 kts | 137° |
| 2026-05-05 17:46 | 11.24044 | 78.30657 | 16439 ft | 350 kts | 137° |
| 2026-05-05 17:46 | 11.22244 | 78.32260 | 15869 ft | 338 kts | 137° |
| 2026-05-05 17:46 | 11.20501 | 78.33810 | 15260 ft | 329 kts | 137° |
| 2026-05-05 17:47 | 11.18798 | 78.35327 | 14640 ft | 325 kts | 137° |
| 2026-05-05 17:47 | 11.17120 | 78.36821 | 14021 ft | 323 kts | 137° |
| 2026-05-05 17:47 | 11.15454 | 78.38303 | 13394 ft | 315 kts | 137° |
| 2026-05-05 17:47 | 11.13813 | 78.39761 | 12765 ft | 308 kts | 137° |
| 2026-05-05 17:48 | 11.12217 | 78.41181 | 12145 ft | 305 kts | 137° |
| 2026-05-05 17:48 | 11.10626 | 78.42596 | 11521 ft | 303 kts | 137° |
| 2026-05-05 17:48 | 11.09052 | 78.43995 | 10897 ft | 300 kts | 137° |
| 2026-05-05 17:48 | 11.07507 | 78.45367 | 10277 ft | 296 kts | 137° |
| 2026-05-05 17:49 | 11.05975 | 78.46729 | 9656 ft | 292 kts | 137° |
| 2026-05-05 17:49 | 11.04457 | 78.48077 | 9031 ft | 288 kts | 137° |
| 2026-05-05 17:49 | 11.02971 | 78.49398 | 8410 ft | 284 kts | 137° |
| 2026-05-05 17:49 | 11.01513 | 78.50693 | 7792 ft | 281 kts | 137° |
| 2026-05-05 17:50 | 11.00063 | 78.51981 | 7166 ft | 274 kts | 138° |
| 2026-05-05 17:50 | 10.98650 | 78.53236 | 6543 ft | 268 kts | 138° |
| 2026-05-05 17:50 | 10.97252 | 78.54477 | 5915 ft | 264 kts | 138° |
| 2026-05-05 17:50 | 10.95863 | 78.55711 | 5289 ft | 266 kts | 139° |
| 2026-05-05 17:51 | 10.94485 | 78.56938 | 4671 ft | 268 kts | 140° |
| 2026-05-05 17:51 | 10.93225 | 78.58302 | 4035 ft | 265 kts | 121° |
| 2026-05-05 17:51 | 10.92307 | 78.59901 | 3419 ft | 260 kts | 121° |
| 2026-05-05 17:51 | 10.91455 | 78.61482 | 2989 ft | 255 kts | 118° |
| 2026-05-05 17:52 | 10.90630 | 78.63058 | 2612 ft | 248 kts | 118° |
| 2026-05-05 17:52 | 10.89839 | 78.64570 | 2357 ft | 238 kts | 118° |
| 2026-05-05 17:52 | 10.89051 | 78.66078 | 2291 ft | 249 kts | 118° |
| 2026-05-05 17:52 | 10.88216 | 78.67670 | 2274 ft | 262 kts | 118° |
| 2026-05-05 17:53 | 10.87361 | 78.69299 | 2267 ft | 263 kts | 118° |
| 2026-05-05 17:53 | 10.86499 | 78.70939 | 2265 ft | 264 kts | 118° |
| 2026-05-05 17:53 | 10.85965 | 78.72715 | 2263 ft | 265 kts | 92° |
| 2026-05-05 17:53 | 10.86036 | 78.74596 | 2267 ft | 266 kts | 86° |
| 2026-05-05 17:54 | 10.86186 | 78.76459 | 2265 ft | 265 kts | 85° |
| 2026-05-05 17:54 | 10.86154 | 78.78291 | 2249 ft | 249 kts | 106° |
| 2026-05-05 17:54 | 10.85291 | 78.79694 | 2253 ft | 228 kts | 143° |
| 2026-05-05 17:54 | 10.83908 | 78.80419 | 2264 ft | 224 kts | 156° |
| 2026-05-05 17:55 | 10.82490 | 78.81057 | 2263 ft | 222 kts | 156° |
| 2026-05-05 17:55 | 10.81042 | 78.81509 | 2257 ft | 213 kts | 181° |
| 2026-05-05 17:55 | 10.79725 | 78.81059 | 2156 ft | 199 kts | 218° |
| 2026-05-05 17:55 | 10.78688 | 78.80151 | 1784 ft | 197 kts | 222° |
| 2026-05-05 17:56 | 10.77691 | 78.79211 | 1423 ft | 192 kts | 223° |
| 2026-05-05 17:56 | 10.77073 | 78.78087 | 1280 ft | 175 kts | 265° |
| 2026-05-05 17:56 | 10.77052 | 78.76903 | 1122 ft | 161 kts | 263° |
| 2026-05-05 17:56 | 10.76946 | 78.75805 | 922 ft | 149 kts | 264° |
| 2026-05-05 17:57 | 10.76861 | 78.74783 | 704 ft | 145 kts | 264° |
| 2026-05-05 17:57 | 10.76779 | 78.73767 | 451 ft | 143 kts | 264° |
| 2026-05-05 17:57 | 10.76700 | 78.72765 | 289 ft | 143 kts | 264° |
| 2026-05-05 17:57 | 10.76616 | 78.71772 | 301 ft | 141 kts | 264° |
| 2026-05-05 17:58 | 10.76544 | 78.70789 | 503 ft | 138 kts | 266° |
| 2026-05-05 17:58 | 10.76523 | 78.69792 | 914 ft | 142 kts | 266° |
| 2026-05-05 17:58 | 10.76386 | 78.68803 | 1258 ft | 146 kts | 243° |
| 2026-05-05 17:58 | 10.76083 | 78.67837 | 1456 ft | 144 kts | 260° |
| 2026-05-05 17:59 | 10.75939 | 78.66827 | 1675 ft | 144 kts | 262° |
| 2026-05-05 17:59 | 10.75785 | 78.65670 | 1900 ft | 177 kts | 262° |
| 2026-05-05 17:59 | 10.75749 | 78.64397 | 2067 ft | 187 kts | 287° |
| 2026-05-05 17:59 | 10.76563 | 78.63326 | 2275 ft | 209 kts | 330° |
| 2026-05-05 18:00 | 10.78043 | 78.63006 | 2474 ft | 228 kts | 7° |
| 2026-05-05 18:00 | 10.79587 | 78.63328 | 2685 ft | 231 kts | 14° |
| 2026-05-05 18:00 | 10.81065 | 78.63972 | 2873 ft | 235 kts | 41° |
| 2026-05-05 18:00 | 10.81958 | 78.65369 | 2947 ft | 244 kts | 76° |
| 2026-05-05 18:01 | 10.82209 | 78.67049 | 2958 ft | 233 kts | 85° |
| 2026-05-05 18:01 | 10.82357 | 78.68707 | 2976 ft | 254 kts | 85° |
| 2026-05-05 18:01 | 10.82503 | 78.70435 | 2958 ft | 235 kts | 85° |
| 2026-05-05 18:01 | 10.82642 | 78.72087 | 2962 ft | 234 kts | 86° |
| 2026-05-05 18:02 | 10.82781 | 78.73717 | 2961 ft | 229 kts | 86° |
| 2026-05-05 18:02 | 10.82919 | 78.75334 | 2963 ft | 227 kts | 86° |
| 2026-05-05 18:02 | 10.83056 | 78.76933 | 2963 ft | 226 kts | 86° |
| 2026-05-05 18:02 | 10.83191 | 78.78506 | 2964 ft | 226 kts | 86° |
| 2026-05-05 18:03 | 10.83329 | 78.80108 | 2964 ft | 226 kts | 85° |
| 2026-05-05 18:03 | 10.83466 | 78.81706 | 2964 ft | 226 kts | 85° |
| 2026-05-05 18:03 | 10.83604 | 78.83313 | 2964 ft | 226 kts | 85° |
| 2026-05-05 18:03 | 10.83740 | 78.84894 | 2964 ft | 226 kts | 85° |
| 2026-05-05 18:04 | 10.83876 | 78.86479 | 2964 ft | 226 kts | 85° |
| 2026-05-05 18:04 | 10.84012 | 78.88070 | 2964 ft | 226 kts | 85° |
| 2026-05-05 18:04 | 10.84148 | 78.89670 | 2963 ft | 226 kts | 87° |
| 2026-05-05 18:04 | 10.83807 | 78.91196 | 2963 ft | 225 kts | 124° |
| 2026-05-05 18:05 | 10.82621 | 78.92193 | 2963 ft | 224 kts | 162° |
| 2026-05-05 18:05 | 10.81084 | 78.92468 | 2967 ft | 224 kts | 175° |
| 2026-05-05 18:05 | 10.79568 | 78.92384 | 2961 ft | 221 kts | 202° |
| 2026-05-05 18:05 | 10.78438 | 78.91453 | 2956 ft | 209 kts | 242° |
| 2026-05-05 18:06 | 10.78098 | 78.90031 | 2963 ft | 201 kts | 264° |
| 2026-05-05 18:06 | 10.78008 | 78.89105 | 2959 ft | 195 kts | 264° |
| 2026-05-05 18:06 | 10.77844 | 78.87307 | 2950 ft | 185 kts | 264° |
| 2026-05-05 18:06 | 10.77737 | 78.86032 | 2769 ft | 172 kts | 265° |
| 2026-05-05 18:07 | 10.77643 | 78.84854 | 2646 ft | 163 kts | 265° |
| 2026-05-05 18:07 | 10.77556 | 78.83739 | 2393 ft | 156 kts | 265° |
| 2026-05-05 18:07 | 10.77473 | 78.82663 | 2175 ft | 151 kts | 265° |
| 2026-05-05 18:07 | 10.77404 | 78.81598 | 1965 ft | 150 kts | 265° |
| 2026-05-05 18:08 | 10.77327 | 78.80540 | 1783 ft | 150 kts | 265° |
| 2026-05-05 18:08 | 10.77248 | 78.79475 | 1570 ft | 149 kts | 265° |
| 2026-05-05 18:08 | 10.77165 | 78.78434 | 1368 ft | 149 kts | 264° |
| 2026-05-05 18:08 | 10.77076 | 78.77386 | 1166 ft | 148 kts | 264° |
| 2026-05-05 18:09 | 10.76992 | 78.76353 | 992 ft | 148 kts | 264° |
| 2026-05-05 18:09 | 10.76907 | 78.75298 | 771 ft | 148 kts | 264° |
| 2026-05-05 18:09 | 10.76824 | 78.74253 | 581 ft | 147 kts | 264° |
| 2026-05-05 18:09 | 10.76738 | 78.73220 | 369 ft | 148 kts | 264° |
| 2026-05-05 18:10 | 10.76658 | 78.72221 | 290 ft | 125 kts | 265° |
| 2026-05-05 18:10 | 10.76594 | 78.71447 | 294 ft | 97 kts | 265° |
| 2026-05-05 18:10 | 10.76558 | 78.70975 | 298 ft | 39 kts | 260° |